createdAt,value
2019-03-08T00:00:49.285Z,70.90
2019-03-08T00:03:19.222Z,70.90
2019-03-08T00:05:47.175Z,70.50
2019-03-08T00:08:15.198Z,70.20
2019-03-08T00:10:43.197Z,70.30
2019-03-08T00:13:11.148Z,70.40
2019-03-08T00:15:39.349Z,70.20
2019-03-08T00:18:07.319Z,70.20
2019-03-08T00:20:35.338Z,70.20
2019-03-08T00:23:03.368Z,69.90
2019-03-08T00:25:31.295Z,69.50
2019-03-08T00:27:59.260Z,69.70
2019-03-08T00:30:27.624Z,69.50
2019-03-08T00:32:55.656Z,69.50
2019-03-08T00:35:23.716Z,69.60
2019-03-08T00:37:51.747Z,69.30
2019-03-08T00:40:19.772Z,69.10
2019-03-08T00:42:47.757Z,69.30
2019-03-08T00:45:17.491Z,69.40
2019-03-08T00:47:45.846Z,69.40
2019-03-08T00:50:14.194Z,69.20
2019-03-08T00:52:42.300Z,69.30
2019-03-08T00:55:10.783Z,69.50
2019-03-08T00:57:40.220Z,69.10
2019-03-08T01:00:13.108Z,69.70
2019-03-08T01:02:41.194Z,69.80
2019-03-08T01:05:09.749Z,69.90
2019-03-08T01:07:37.744Z,70.20
2019-03-08T01:10:09.488Z,70.20
2019-03-08T01:12:37.823Z,70.20
2019-03-08T01:15:08.694Z,69.70
2019-03-08T01:17:37.798Z,70.00
2019-03-08T01:20:06.957Z,70.10
2019-03-08T01:22:35.270Z,70.20
2019-03-08T01:25:04.141Z,70.30
2019-03-08T01:27:32.393Z,70.40
2019-03-08T01:30:00.629Z,70.70
2019-03-08T01:32:28.986Z,70.60
2019-03-08T01:34:57.390Z,70.40
2019-03-08T01:37:25.667Z,70.10
2019-03-08T01:39:53.798Z,69.80
2019-03-08T01:42:21.891Z,69.60
2019-03-08T01:44:49.956Z,69.70
2019-03-08T01:47:18.492Z,69.60
2019-03-08T01:49:46.579Z,69.60
2019-03-08T01:52:14.495Z,69.30
2019-03-08T01:54:43.787Z,69.30
2019-03-08T01:57:11.988Z,69.30
2019-03-08T01:59:40.024Z,69.00
2019-03-08T02:02:08.089Z,68.70
2019-03-08T02:04:36.047Z,69.00
2019-03-08T02:07:04.643Z,68.70
2019-03-08T02:09:32.621Z,68.10
2019-03-08T02:12:00.775Z,67.90
2019-03-08T02:14:28.902Z,67.40
2019-03-08T02:16:56.868Z,66.90
2019-03-08T02:19:24.875Z,65.70
2019-03-08T02:21:52.877Z,65.30
2019-03-08T02:24:20.872Z,64.70
2019-03-08T02:26:48.930Z,64.10
2019-03-08T02:29:17.474Z,63.80
2019-03-08T02:31:45.443Z,62.90
2019-03-08T02:34:13.424Z,62.30
2019-03-08T02:36:41.476Z,60.50
2019-03-08T02:39:09.415Z,60.10
2019-03-08T02:41:40.492Z,59.80
2019-03-08T02:44:09.673Z,59.60
2019-03-08T02:46:37.740Z,58.80
2019-03-08T02:49:06.371Z,58.60
2019-03-08T02:51:34.662Z,58.10
2019-03-08T02:54:02.729Z,58.00
2019-03-08T02:56:31.336Z,56.30
2019-03-08T02:58:59.725Z,54.30
2019-03-08T03:01:27.895Z,52.50
2019-03-08T03:03:55.815Z,51.80
2019-03-08T03:06:24.076Z,51.10
2019-03-08T03:08:52.026Z,50.70
2019-03-08T03:11:19.986Z,50.30
2019-03-08T03:13:48.179Z,50.10
2019-03-08T03:16:16.733Z,50.50
2019-03-08T03:18:44.706Z,50.30
2019-03-08T03:21:23.604Z,50.80
2019-03-08T03:23:52.237Z,51.30
2019-03-08T03:26:20.408Z,52.50
2019-03-08T03:28:48.477Z,53.30
2019-03-08T03:31:16.418Z,53.80
2019-03-08T03:33:44.477Z,54.40
2019-03-08T03:36:14.326Z,54.90
2019-03-08T03:38:42.321Z,55.40
2019-03-08T03:41:10.478Z,55.90
2019-03-08T03:43:38.442Z,56.30
2019-03-08T03:46:06.505Z,56.80
2019-03-08T03:48:34.764Z,57.00
2019-03-08T03:51:02.917Z,57.10
2019-03-08T03:53:31.056Z,57.40
2019-03-08T03:55:59.130Z,57.50
2019-03-08T03:58:29.230Z,57.30
2019-03-08T04:00:57.313Z,57.40
2019-03-08T04:03:25.245Z,56.70
2019-03-08T04:05:53.239Z,56.50
2019-03-08T04:08:21.235Z,56.50
2019-03-08T04:10:49.354Z,56.70
2019-03-08T04:13:17.501Z,57.00
2019-03-08T04:15:45.657Z,56.90
2019-03-08T04:18:13.701Z,57.00
2019-03-08T04:20:41.813Z,56.90
2019-03-08T04:23:10.023Z,57.20
2019-03-08T04:25:38.125Z,57.30
2019-03-08T04:28:06.418Z,57.30
2019-03-08T04:30:34.615Z,57.50
2019-03-08T04:33:03.534Z,58.00
2019-03-08T04:35:31.658Z,58.20
2019-03-08T04:38:00.022Z,58.10
2019-03-08T04:40:28.067Z,58.40
2019-03-08T04:42:56.449Z,58.20
2019-03-08T04:45:25.657Z,57.80
2019-03-08T04:47:53.830Z,57.90
2019-03-08T04:50:25.069Z,57.90
2019-03-08T04:52:53.244Z,57.40
2019-03-08T04:55:21.702Z,57.80
2019-03-08T04:57:50.015Z,57.90
2019-03-08T05:00:18.155Z,57.80
2019-03-08T05:02:46.267Z,57.90
2019-03-08T05:05:14.409Z,57.60
2019-03-08T05:07:42.613Z,57.50
2019-03-08T05:10:12.624Z,57.00
2019-03-08T05:12:41.923Z,56.40
2019-03-08T05:15:10.791Z,56.40
2019-03-08T05:17:38.780Z,56.70
2019-03-08T05:20:07.021Z,55.90
2019-03-08T05:22:35.286Z,55.90
2019-03-08T05:25:04.976Z,56.10
2019-03-08T05:27:33.213Z,56.00
2019-03-08T05:30:01.250Z,55.80
2019-03-08T05:32:29.322Z,56.10
2019-03-08T05:34:57.559Z,56.10
2019-03-08T05:37:25.709Z,56.20
2019-03-08T05:39:53.748Z,56.40
2019-03-08T05:42:22.274Z,56.70
2019-03-08T05:44:50.403Z,56.70
2019-03-08T05:47:18.459Z,56.70
2019-03-08T05:49:46.499Z,56.90
2019-03-08T05:52:14.606Z,56.80
2019-03-08T05:54:42.708Z,57.10
2019-03-08T05:57:11.012Z,57.20
2019-03-08T05:59:39.290Z,57.10
2019-03-08T06:02:07.479Z,57.40
2019-03-08T06:04:35.523Z,57.50
2019-03-08T06:07:03.732Z,57.30
2019-03-08T06:09:31.760Z,57.50
2019-03-08T06:11:59.751Z,57.70
2019-03-08T06:14:28.409Z,57.50
2019-03-08T06:16:56.556Z,57.70
2019-03-08T06:19:24.679Z,57.70
2019-03-08T06:21:52.651Z,57.80
2019-03-08T06:24:21.750Z,57.50
2019-03-08T06:26:50.899Z,57.60
2019-03-08T06:29:18.949Z,57.70
2019-03-08T06:31:47.120Z,57.70
2019-03-08T06:34:15.226Z,57.50
2019-03-08T06:36:43.394Z,57.50
2019-03-08T06:39:11.593Z,57.70
2019-03-08T06:41:39.778Z,57.50
2019-03-08T06:44:07.893Z,57.40
2019-03-08T06:46:36.191Z,57.50
2019-03-08T06:49:04.337Z,57.50
2019-03-08T06:51:32.504Z,57.70
2019-03-08T06:54:00.610Z,57.60
2019-03-08T06:56:28.787Z,57.40
2019-03-08T06:59:07.985Z,57.70
2019-03-08T07:01:38.701Z,57.70
2019-03-08T07:04:06.783Z,57.70
2019-03-08T07:06:35.040Z,58.00
2019-03-08T07:09:04.794Z,57.90
2019-03-08T07:11:35.119Z,58.00
2019-03-08T07:14:04.508Z,57.90
2019-03-08T07:16:33.037Z,57.70
2019-03-08T07:19:01.297Z,57.50
2019-03-08T07:21:34.385Z,57.70
2019-03-08T07:24:10.424Z,57.90
2019-03-08T07:27:10.012Z,58.00
2019-03-08T07:30:16.878Z,58.10
2019-03-08T07:32:52.871Z,58.20
2019-03-08T07:35:58.470Z,58.20
2019-03-08T07:38:44.546Z,57.90
2019-03-08T07:41:42.135Z,58.40
2019-03-08T07:44:32.609Z,58.60
2019-03-08T07:47:21.364Z,58.50
2019-03-08T07:50:21.107Z,58.40
2019-03-08T07:52:57.878Z,58.50
2019-03-08T07:56:03.355Z,58.30
2019-03-08T07:58:50.103Z,58.20
2019-03-08T08:01:26.392Z,57.70
2019-03-08T08:04:19.790Z,57.80
2019-03-08T08:07:22.522Z,57.60
2019-03-08T08:10:13.336Z,57.90
2019-03-08T08:13:00.986Z,58.20
2019-03-08T08:15:57.775Z,58.10
2019-03-08T08:18:54.672Z,59.00
2019-03-08T08:21:32.041Z,59.30
2019-03-08T08:24:17.556Z,59.90
2019-03-08T08:27:14.243Z,60.40
2019-03-08T08:29:48.599Z,60.50
2019-03-08T08:32:54.537Z,60.60
2019-03-08T08:35:48.007Z,60.80
2019-03-08T08:38:35.646Z,62.10
2019-03-08T08:41:23.372Z,62.90
2019-03-08T08:44:11.924Z,64.10
2019-03-08T08:46:56.733Z,66.90
2019-03-08T08:49:44.277Z,68.20
2019-03-08T08:52:33.841Z,68.80
2019-03-08T08:55:19.956Z,70.50
2019-03-08T08:58:13.580Z,71.80
2019-03-08T09:00:54.824Z,72.00
2019-03-08T09:03:51.672Z,72.60
2019-03-08T09:06:27.360Z,73.00
2019-03-08T09:09:08.491Z,76.10
2019-03-08T09:11:52.171Z,77.00
2019-03-08T09:14:22.948Z,78.50
2019-03-08T09:17:16.520Z,81.00
2019-03-08T09:20:02.749Z,81.30
2019-03-08T09:22:43.611Z,81.60
2019-03-08T09:25:22.646Z,83.70
2019-03-08T09:28:09.974Z,82.00
2019-03-08T09:30:43.498Z,84.00
2019-03-08T09:33:20.997Z,84.70
2019-03-08T09:36:08.367Z,85.00
2019-03-08T09:39:02.217Z,85.50
2019-03-08T09:41:51.400Z,85.60
2019-03-08T09:44:47.602Z,85.70
2019-03-08T09:47:35.220Z,85.10
2019-03-08T09:50:15.300Z,83.80
2019-03-08T09:53:00.422Z,84.70
2019-03-08T09:55:48.489Z,85.20
2019-03-08T09:58:42.011Z,85.70
2019-03-08T10:01:31.534Z,86.60
2019-03-08T10:04:28.618Z,87.10
2019-03-08T10:07:17.400Z,87.90
2019-03-08T10:10:08.167Z,88.20
2019-03-08T10:12:51.721Z,87.10
2019-03-08T10:15:31.451Z,88.00
2019-03-08T10:18:22.740Z,89.20
2019-03-08T10:21:10.579Z,89.90
2019-03-08T10:24:02.982Z,90.10
2019-03-08T10:26:54.942Z,90.20
2019-03-08T10:29:57.575Z,90.40
2019-03-08T10:33:00.720Z,90.70
2019-03-08T10:35:54.525Z,88.40
2019-03-08T10:38:39.776Z,89.50
2019-03-08T10:41:27.742Z,86.60
2019-03-08T10:44:15.593Z,75.80
2019-03-08T10:47:06.046Z,79.30
2019-03-08T10:49:55.370Z,75.30
2019-03-08T10:52:33.545Z,74.10
2019-03-08T10:55:19.573Z,66.80
2019-03-08T10:58:05.657Z,71.20
2019-03-08T11:00:50.720Z,68.40
2019-03-08T11:03:39.217Z,67.20
2019-03-08T11:06:28.075Z,66.50
2019-03-08T11:09:21.408Z,65.30
2019-03-08T11:12:12.214Z,66.60
2019-03-08T11:15:23.912Z,62.90
2019-03-08T11:18:01.002Z,60.40
2019-03-08T11:20:47.205Z,61.30
2019-03-08T11:23:50.252Z,61.00
2019-03-08T11:26:49.514Z,60.50
2019-03-08T11:29:33.757Z,58.20
2019-03-08T11:32:25.006Z,58.20
2019-03-08T11:35:15.696Z,57.10
2019-03-08T11:38:06.325Z,57.30
2019-03-08T11:41:06.455Z,57.10
2019-03-08T11:44:03.038Z,56.90
2019-03-08T11:46:50.470Z,57.90
2019-03-08T11:49:36.125Z,57.80
2019-03-08T11:52:22.371Z,60.60
2019-03-08T11:55:16.108Z,60.60
2019-03-08T12:00:44.055Z,61.10
2019-03-08T12:03:35.019Z,61.40
2019-03-08T12:06:30.135Z,60.90
2019-03-08T12:09:19.984Z,60.40
2019-03-08T12:12:13.445Z,60.00
2019-03-08T12:15:14.522Z,61.20
2019-03-08T12:18:20.733Z,58.40
2019-03-08T12:21:07.056Z,55.40
2019-03-08T12:24:00.568Z,55.80
2019-03-08T12:26:53.561Z,51.10
2019-03-08T12:29:39.602Z,48.50
2019-03-08T12:32:51.096Z,48.30
2019-03-08T12:35:41.757Z,49.60
2019-03-08T12:38:21.796Z,48.50
2019-03-08T12:41:05.397Z,49.60
2019-03-08T12:43:52.495Z,48.90
2019-03-08T12:46:37.153Z,48.30
2019-03-08T12:49:18.197Z,49.80
2019-03-08T12:52:14.690Z,48.40
2019-03-08T12:55:06.911Z,48.90
2019-03-08T12:58:01.051Z,48.60
2019-03-08T13:00:36.285Z,47.80
2019-03-08T13:03:21.183Z,46.70
2019-03-08T13:06:11.596Z,44.20
2019-03-08T13:08:48.141Z,43.20
2019-03-08T13:11:16.164Z,39.20
2019-03-08T13:13:44.510Z,40.20
2019-03-08T13:16:13.576Z,40.20
2019-03-08T13:18:41.653Z,39.50
2019-03-08T13:21:09.824Z,38.60
2019-03-08T13:23:37.875Z,37.80
2019-03-08T13:26:07.072Z,38.80
2019-03-08T13:28:35.204Z,37.60
2019-03-08T13:31:03.480Z,38.90
2019-03-08T13:33:31.532Z,38.20
2019-03-08T13:35:59.633Z,37.80
2019-03-08T13:38:27.814Z,38.50
2019-03-08T13:40:55.901Z,37.90
2019-03-08T13:43:23.909Z,39.30
2019-03-08T13:45:52.163Z,38.40
2019-03-08T13:48:20.300Z,38.80
2019-03-08T13:50:48.403Z,37.80
2019-03-08T13:53:17.654Z,35.90
2019-03-08T13:55:45.769Z,38.20
2019-03-08T13:58:13.920Z,34.40
2019-03-08T14:00:41.992Z,33.40
2019-03-08T14:03:10.649Z,32.10
2019-03-08T14:05:39.797Z,31.60
2019-03-08T14:08:08.117Z,31.50
2019-03-08T14:10:36.694Z,32.20
2019-03-08T14:13:05.612Z,32.30
2019-03-08T14:15:33.797Z,33.10
2019-03-08T14:18:01.803Z,32.00
2019-03-08T14:20:30.132Z,32.60
2019-03-08T14:22:58.298Z,33.20
2019-03-08T14:25:26.354Z,32.90
2019-03-08T14:27:54.559Z,33.60
2019-03-08T14:30:24.211Z,31.40
2019-03-08T14:32:52.514Z,30.50
2019-03-08T14:35:21.036Z,30.80
2019-03-08T14:37:52.430Z,31.70
2019-03-08T14:40:57.502Z,31.80
2019-03-08T14:43:32.871Z,32.00
2019-03-08T14:46:05.418Z,32.00
2019-03-08T14:48:33.564Z,32.50
2019-03-08T14:51:01.811Z,32.30
2019-03-08T14:53:32.886Z,32.60
2019-03-08T14:56:00.025Z,32.90
2019-03-08T14:58:28.104Z,33.40
2019-03-08T15:00:56.130Z,33.40
2019-03-08T15:03:24.850Z,33.50
2019-03-08T15:05:54.807Z,33.40
2019-03-08T15:08:23.216Z,33.90
2019-03-08T15:10:51.633Z,34.00
2019-03-08T15:13:20.203Z,33.70
2019-03-08T15:15:50.004Z,34.40
2019-03-08T15:18:18.210Z,34.70
2019-03-08T15:20:46.508Z,35.20
2019-03-08T15:23:17.212Z,35.60
2019-03-08T15:25:45.300Z,35.60
2019-03-08T15:28:14.799Z,33.00
2019-03-08T15:30:43.333Z,31.70
2019-03-08T15:33:11.422Z,31.10
2019-03-08T15:35:39.549Z,34.10
2019-03-08T15:38:07.685Z,37.30
2019-03-08T15:40:35.962Z,38.90
2019-03-08T15:43:04.108Z,40.00
2019-03-08T15:45:32.781Z,41.30
2019-03-08T15:48:03.169Z,42.80
2019-03-08T15:50:31.305Z,43.40
2019-03-08T15:52:59.518Z,43.60
2019-03-08T15:55:28.631Z,43.60
2019-03-08T15:57:57.064Z,44.00
2019-03-08T16:00:25.162Z,44.00
2019-03-08T16:02:54.748Z,44.30
2019-03-08T16:05:23.973Z,43.00
2019-03-08T16:07:52.817Z,40.90
2019-03-08T16:10:21.282Z,40.20
2019-03-08T16:12:49.598Z,41.60
2019-03-08T16:15:48.172Z,42.30
2019-03-08T16:24:10.320Z,43.70
2019-03-08T16:26:38.422Z,44.10
2019-03-08T16:29:06.651Z,43.90
2019-03-08T16:31:49.878Z,43.90
2019-03-08T16:34:18.562Z,43.60
2019-03-08T16:37:15.601Z,43.30
2019-03-08T16:40:11.233Z,43.50
2019-03-08T16:43:09.066Z,42.90
2019-03-08T16:48:44.084Z,44.10
2019-03-08T16:51:26.001Z,44.10
2019-03-08T16:54:19.725Z,46.90
2019-03-08T16:56:59.366Z,47.70
2019-03-08T16:59:40.949Z,49.60
2019-03-08T17:02:18.756Z,50.20
2019-03-08T17:04:59.801Z,50.90
2019-03-08T17:07:54.364Z,51.70
2019-03-08T17:10:54.542Z,52.60
2019-03-08T17:13:40.364Z,52.80
2019-03-08T17:16:36.492Z,53.00
2019-03-08T17:19:21.022Z,53.20
2019-03-08T17:21:59.008Z,53.10
2019-03-08T17:24:47.045Z,53.20
2019-03-08T17:27:44.326Z,53.00
2019-03-08T17:30:33.393Z,53.00
2019-03-08T17:33:27.142Z,53.40
2019-03-08T17:36:14.942Z,52.60
2019-03-08T17:39:05.760Z,52.60
2019-03-08T17:42:06.846Z,53.40
2019-03-08T17:45:01.050Z,53.90
2019-03-08T17:47:51.531Z,54.70
2019-03-08T17:50:48.293Z,55.20
2019-03-08T17:53:36.523Z,55.30
2019-03-08T17:56:30.344Z,55.80
2019-03-08T17:59:34.235Z,56.20
2019-03-08T18:02:17.245Z,57.10
2019-03-08T18:05:06.804Z,57.30
2019-03-08T18:07:52.820Z,57.30
2019-03-08T18:10:51.494Z,57.60
2019-03-08T18:13:38.852Z,57.00
2019-03-08T18:16:27.288Z,56.90
2019-03-08T18:19:20.024Z,56.50
2019-03-08T18:21:59.251Z,56.70
2019-03-08T18:24:45.263Z,57.10
2019-03-08T18:27:31.776Z,57.30
2019-03-08T18:30:18.148Z,56.40
2019-03-08T18:33:11.621Z,56.20
2019-03-08T18:35:51.604Z,56.40
2019-03-08T18:38:41.980Z,56.00
2019-03-08T18:41:24.942Z,56.60
2019-03-08T18:44:03.607Z,57.00
2019-03-08T18:46:49.872Z,57.50
2019-03-08T18:49:34.372Z,58.00
2019-03-08T18:52:20.963Z,58.40
2019-03-08T18:54:57.531Z,59.40
2019-03-08T18:57:54.320Z,60.00
2019-03-08T19:00:44.796Z,60.70
2019-03-08T19:03:27.917Z,61.10
2019-03-08T19:06:09.656Z,61.50
2019-03-08T19:08:52.028Z,61.60
2019-03-08T19:11:39.902Z,61.40
2019-03-08T19:14:26.300Z,61.40
2019-03-08T19:17:12.778Z,60.90
2019-03-08T19:20:12.284Z,60.90
2019-03-08T19:22:58.083Z,60.70
2019-03-08T19:26:01.640Z,60.60
2019-03-08T19:28:55.262Z,60.00
2019-03-08T19:31:29.891Z,59.80
2019-03-08T19:34:26.511Z,59.80
2019-03-08T19:37:17.031Z,59.60
2019-03-08T19:40:08.862Z,59.40
2019-03-08T19:43:03.030Z,59.40
2019-03-08T19:48:52.732Z,59.30
2019-03-08T19:51:37.452Z,59.40
2019-03-08T19:54:17.498Z,59.30
2019-03-08T19:57:18.251Z,59.30
2019-03-08T20:18:26.648Z,58.60
2019-03-08T20:21:17.318Z,58.60
2019-03-08T20:23:55.549Z,57.80
2019-03-08T20:26:50.313Z,58.20
2019-03-08T20:29:37.022Z,57.10
2019-03-08T20:32:19.944Z,56.80
2019-03-08T20:35:10.676Z,56.20
2019-03-08T20:37:58.789Z,55.20
2019-03-08T20:40:55.579Z,54.80
2019-03-08T20:43:28.910Z,54.90
2019-03-08T20:46:13.184Z,54.80
2019-03-08T20:48:42.199Z,54.80
2019-03-08T20:51:10.793Z,55.30
2019-03-08T20:53:39.061Z,55.60
2019-03-08T20:56:07.944Z,55.80
2019-03-08T20:58:37.039Z,55.90
2019-03-08T21:01:05.716Z,56.50
2019-03-08T21:03:35.553Z,56.70
2019-03-08T21:06:04.031Z,56.70
2019-03-08T21:08:33.221Z,57.00
2019-03-08T21:11:03.709Z,57.00
2019-03-08T21:13:31.957Z,57.30
2019-03-08T21:16:00.328Z,57.50
2019-03-08T21:18:28.679Z,57.40
2019-03-08T21:20:57.189Z,57.40
2019-03-08T21:23:25.535Z,57.20
2019-03-08T21:25:54.149Z,57.20
2019-03-08T21:28:22.816Z,57.60
2019-03-08T21:30:51.271Z,57.90
2019-03-08T21:33:19.697Z,57.70
2019-03-08T21:35:49.108Z,58.20
2019-03-08T21:38:17.198Z,57.60
2019-03-08T21:40:47.969Z,57.60
2019-03-08T21:43:16.378Z,56.10
2019-03-08T21:45:44.638Z,56.50
2019-03-08T21:48:13.023Z,55.60
2019-03-08T21:50:41.384Z,55.50
2019-03-08T21:53:09.876Z,55.60
2019-03-08T21:55:39.222Z,55.30
2019-03-08T21:58:08.772Z,55.90
2019-03-08T22:00:38.109Z,55.20
2019-03-08T22:03:06.419Z,54.80
2019-03-08T22:05:36.480Z,55.10
2019-03-08T22:08:04.626Z,55.10
2019-03-08T22:10:44.066Z,54.60
2019-03-08T22:13:12.594Z,53.90
2019-03-08T22:15:41.887Z,53.60
2019-03-08T22:18:10.121Z,53.30
2019-03-08T22:20:39.352Z,53.10
2019-03-08T22:23:07.734Z,53.50
2019-03-08T22:25:35.883Z,53.30
2019-03-08T22:28:04.115Z,52.70
2019-03-08T22:30:32.373Z,52.10
2019-03-08T22:33:00.471Z,51.80
2019-03-08T22:35:29.631Z,51.90
2019-03-08T22:37:57.743Z,52.00
2019-03-08T22:40:30.278Z,51.40
2019-03-08T22:42:58.536Z,51.20
2019-03-08T22:45:26.582Z,51.10
2019-03-08T22:47:55.321Z,50.80
2019-03-08T22:50:23.843Z,50.60
2019-03-08T22:52:51.934Z,50.90
2019-03-08T22:55:20.109Z,50.20
2019-03-08T22:57:48.170Z,50.50
2019-03-08T23:00:53.387Z,51.10
2019-03-08T23:03:23.707Z,51.40
2019-03-08T23:05:52.067Z,51.70
2019-03-08T23:08:20.384Z,51.90
2019-03-08T23:10:48.943Z,52.00
2019-03-08T23:13:17.247Z,52.10
2019-03-08T23:15:45.293Z,52.10
2019-03-08T23:18:13.493Z,51.90
2019-03-08T23:20:41.530Z,51.90
2019-03-08T23:23:09.532Z,52.10
2019-03-08T23:25:37.535Z,52.30
2019-03-08T23:28:32.186Z,52.50
2019-03-08T23:31:05.003Z,52.70
2019-03-08T23:33:33.047Z,52.50
2019-03-08T23:36:02.061Z,52.70
2019-03-08T23:38:30.195Z,52.70
2019-03-08T23:40:58.454Z,52.70
2019-03-08T23:43:26.697Z,52.40
2019-03-08T23:45:55.141Z,53.30
2019-03-08T23:48:25.836Z,52.50
2019-03-08T23:50:54.163Z,53.00
2019-03-08T23:53:22.669Z,53.20
2019-03-08T23:55:51.214Z,53.10
2019-03-08T23:58:19.618Z,53.10
